createdAt,value
2022-12-23T00:02:39.416Z,100214.59
2022-12-23T00:05:42.227Z,100204.28
2022-12-23T00:08:44.806Z,100206.84
2022-12-23T00:12:06.300Z,100205.91
2022-12-23T00:15:09.255Z,100205.97
2022-12-23T00:18:11.888Z,100205.09
2022-12-23T00:21:16.264Z,100211.03
2022-12-23T00:24:18.797Z,100209.31
2022-12-23T00:27:21.133Z,100204.22
2022-12-23T00:30:24.744Z,100209.38
2022-12-23T00:33:28.907Z,100205.91
2022-12-23T00:36:31.685Z,100212.78
2022-12-23T00:39:55.031Z,100208.50
2022-12-23T00:42:58.330Z,100214.47
2022-12-23T00:46:00.677Z,100204.16
2022-12-23T00:49:21.994Z,100201.66
2022-12-23T00:52:24.355Z,100203.34
2022-12-23T00:55:27.057Z,100186.06
2022-12-23T00:58:29.458Z,100188.69
2022-12-23T01:01:51.755Z,100191.16
2022-12-23T01:05:12.991Z,100193.78
2022-12-23T01:08:15.663Z,100198.91
2022-12-23T01:11:18.220Z,100195.50
2022-12-23T01:14:21.348Z,100191.09
2022-12-23T01:17:23.831Z,100191.94
2022-12-23T01:20:29.240Z,100193.72
2022-12-23T01:23:31.669Z,100179.81
2022-12-23T01:26:34.527Z,100177.34
2022-12-23T01:29:37.733Z,100174.66
2022-12-23T01:32:40.352Z,100172.84
2022-12-23T01:35:42.585Z,100179.75
2022-12-23T01:38:45.523Z,100175.41
2022-12-23T01:42:06.445Z,100173.66
2022-12-23T01:45:14.294Z,100167.66
2022-12-23T01:48:21.924Z,100162.31
2022-12-23T01:51:28.741Z,100155.53
2022-12-23T01:54:31.297Z,100155.53
2022-12-23T01:57:34.757Z,100158.13
2022-12-23T02:00:59.938Z,100146.94
2022-12-23T02:04:07.736Z,100150.31
2022-12-23T02:07:29.757Z,100146.84
2022-12-23T02:10:56.190Z,100138.28
2022-12-23T02:14:36.646Z,100136.56
2022-12-23T02:17:59.583Z,100137.38
2022-12-23T02:21:21.161Z,100125.44
2022-12-23T02:24:29.612Z,100128.03
2022-12-23T02:27:33.251Z,100126.34
2022-12-23T02:30:52.535Z,100129.84
2022-12-23T02:33:58.018Z,100129.88
2022-12-23T02:37:22.758Z,100135.06
2022-12-23T02:40:44.310Z,100129.94
2022-12-23T02:43:50.214Z,100127.50
2022-12-23T02:46:57.098Z,100129.19
2022-12-23T02:50:02.539Z,100130.06
2022-12-23T02:53:10.053Z,100121.53
2022-12-23T02:56:14.560Z,100122.34
2022-12-23T02:59:20.406Z,100125.03
2022-12-23T03:02:23.238Z,100126.78
2022-12-23T03:05:35.420Z,100128.47
2022-12-23T03:08:42.461Z,100137.94
2022-12-23T03:11:53.986Z,100137.81
2022-12-23T03:15:16.521Z,100136.22
2022-12-23T03:18:21.888Z,100134.38
2022-12-23T03:21:31.964Z,100139.78
2022-12-23T03:24:52.984Z,100129.47
2022-12-23T03:28:01.937Z,100126.09
2022-12-23T03:31:05.662Z,100121.69
2022-12-23T03:34:10.910Z,100126.06
2022-12-23T03:37:14.387Z,100121.69
2022-12-23T03:40:17.411Z,100113.97
2022-12-23T03:43:46.585Z,100119.06
2022-12-23T03:46:56.212Z,100119.09
2022-12-23T03:50:02.781Z,100120.06
2022-12-23T03:53:20.180Z,100112.28
2022-12-23T03:56:27.303Z,100108.16
2022-12-23T03:59:41.267Z,100117.66
2022-12-23T04:03:16.126Z,100104.84
2022-12-23T04:06:22.541Z,100118.59
2022-12-23T04:09:26.151Z,100105.69
2022-12-23T04:12:30.312Z,100099.72
2022-12-23T04:15:33.099Z,100111.63
2022-12-23T04:18:35.986Z,100102.31
2022-12-23T04:21:38.688Z,100092.03
2022-12-23T04:24:41.512Z,100091.16
2022-12-23T04:27:43.940Z,100092.94
2022-12-23T04:30:46.639Z,100089.56
2022-12-23T04:33:49.052Z,100086.03
2022-12-23T04:36:51.602Z,100095.50
2022-12-23T04:39:54.011Z,100101.53
2022-12-23T04:42:56.606Z,100088.56
2022-12-23T04:45:58.847Z,100094.56
2022-12-23T04:49:01.467Z,100102.38
2022-12-23T04:52:03.872Z,100113.59
2022-12-23T04:55:06.696Z,100115.22
2022-12-23T04:58:09.152Z,100110.12
2022-12-23T05:01:12.331Z,100110.12
2022-12-23T05:04:14.757Z,100105.06
2022-12-23T05:07:17.587Z,100103.41
2022-12-23T05:10:20.983Z,100099.94
2022-12-23T05:13:23.986Z,100101.78
2022-12-23T05:16:26.506Z,100102.63
2022-12-23T05:19:29.161Z,100112.84
2022-12-23T05:22:31.522Z,100123.19
2022-12-23T05:25:35.060Z,100119.78
2022-12-23T05:28:37.696Z,100120.59
2022-12-23T05:31:40.327Z,100102.59
2022-12-23T05:34:42.683Z,100106.06
2022-12-23T05:37:45.302Z,100097.56
2022-12-23T05:40:49.683Z,100097.56
2022-12-23T05:43:52.301Z,100105.37
2022-12-23T05:46:54.669Z,100107.06
2022-12-23T05:49:57.256Z,100107.91
2022-12-23T05:52:59.685Z,100103.66
2022-12-23T05:56:06.083Z,100116.50
2022-12-23T05:59:08.379Z,100115.59
2022-12-23T06:02:11.216Z,100122.47
2022-12-23T06:05:14.201Z,100131.03
2022-12-23T06:08:16.688Z,100129.34
2022-12-23T06:11:19.436Z,100123.28
2022-12-23T06:14:28.379Z,100130.16
2022-12-23T06:17:31.579Z,100121.59
2022-12-23T06:20:34.740Z,100123.34
2022-12-23T06:23:37.464Z,100119.09
2022-12-23T06:26:39.747Z,100130.31
2022-12-23T06:29:42.696Z,100126.91
2022-12-23T06:32:45.053Z,100125.97
2022-12-23T06:35:50.037Z,100126.81
2022-12-23T06:38:52.376Z,100121.00
2022-12-23T06:41:55.102Z,100111.53
2022-12-23T06:44:57.367Z,100126.25
2022-12-23T06:48:00.008Z,100133.09
2022-12-23T06:51:02.639Z,100136.53
2022-12-23T06:54:05.350Z,100132.31
2022-12-23T06:57:07.706Z,100134.88
2022-12-23T07:00:10.818Z,100138.34
2022-12-23T07:03:13.373Z,100142.63
2022-12-23T07:06:16.344Z,100143.41
2022-12-23T07:09:18.760Z,100154.50
2022-12-23T07:12:21.442Z,100155.37
2022-12-23T07:15:23.906Z,100173.31
2022-12-23T07:18:26.591Z,100172.50
2022-12-23T07:21:30.137Z,100165.59
2022-12-23T07:24:33.038Z,100164.69
2022-12-23T07:27:35.337Z,100179.13
2022-12-23T07:30:41.581Z,100169.75
2022-12-23T07:33:43.988Z,100175.75
2022-12-23T07:36:46.631Z,100172.28
2022-12-23T07:39:49.026Z,100161.97
2022-12-23T07:42:56.103Z,100150.84
2022-12-23T07:46:00.875Z,100143.13
2022-12-23T07:49:03.919Z,100143.22
2022-12-23T07:52:06.273Z,100157.75
2022-12-23T07:55:08.987Z,100157.88
2022-12-23T07:58:11.480Z,100161.28
2022-12-23T08:01:14.227Z,100148.38
2022-12-23T08:04:16.954Z,100140.59
2022-12-23T08:07:19.369Z,100138.87
2022-12-23T08:10:21.944Z,100149.13
2022-12-23T08:13:24.238Z,100147.44
2022-12-23T08:16:26.982Z,100135.34
2022-12-23T08:19:29.283Z,100139.63
2022-12-23T08:22:32.069Z,100140.62
2022-12-23T08:25:34.373Z,100131.72
2022-12-23T08:28:37.691Z,100120.41
2022-12-23T08:31:40.183Z,100154.06
2022-12-23T08:34:43.506Z,100133.38
2022-12-23T08:37:45.800Z,100152.25
2022-12-23T08:40:52.153Z,100127.56
2022-12-23T08:43:55.620Z,100133.47
2022-12-23T08:46:58.294Z,100130.97
2022-12-23T08:50:00.702Z,100134.31
2022-12-23T08:53:03.782Z,100123.38
2022-12-23T08:56:07.971Z,100117.25
2022-12-23T08:59:18.296Z,100095.06
2022-12-23T09:02:21.815Z,100087.47
2022-12-23T09:05:24.741Z,100087.38
2022-12-23T09:08:27.085Z,100093.03
2022-12-23T09:11:30.211Z,100103.28
2022-12-23T09:14:32.571Z,100097.09
2022-12-23T09:17:35.307Z,100111.06
2022-12-23T09:20:38.001Z,100115.97
2022-12-23T09:23:40.957Z,100128.16
2022-12-23T09:26:43.391Z,100123.75
2022-12-23T09:29:45.994Z,100122.09
2022-12-23T09:32:48.652Z,100121.13
2022-12-23T09:35:51.372Z,100112.41
2022-12-23T09:38:57.400Z,100110.75
2022-12-23T09:42:03.194Z,100102.03
2022-12-23T09:45:14.841Z,100104.53
2022-12-23T09:48:19.686Z,100087.13
2022-12-23T09:51:23.585Z,100082.06
2022-12-23T09:54:29.256Z,100085.06
2022-12-23T09:57:46.497Z,100089.38
2022-12-23T10:01:01.854Z,100109.62
2022-12-23T10:04:22.702Z,100100.97
2022-12-23T10:07:33.151Z,100089.16
2022-12-23T10:10:48.215Z,100077.09
2022-12-23T10:13:57.031Z,100057.59
2022-12-23T10:17:02.367Z,100050.13
2022-12-23T10:20:05.950Z,100047.50
2022-12-23T10:23:13.681Z,100045.94
2022-12-23T10:26:24.205Z,100056.75
2022-12-23T10:29:30.093Z,100043.78
2022-12-23T10:32:42.466Z,100049.91
2022-12-23T10:35:48.285Z,100043.19
2022-12-23T10:38:58.824Z,100037.22
2022-12-23T10:42:04.311Z,100022.06
2022-12-23T10:45:21.958Z,100029.59
2022-12-23T10:48:27.710Z,100024.50
2022-12-23T10:51:45.444Z,100027.81
2022-12-23T10:54:48.416Z,100026.06
2022-12-23T10:57:51.986Z,100026.97
2022-12-23T11:00:56.610Z,100025.22
2022-12-23T11:03:58.949Z,100020.84
2022-12-23T11:07:41.642Z,100015.62
2022-12-23T11:10:31.362Z,100011.28
2022-12-23T11:13:41.578Z,100023.97
2022-12-23T11:16:45.716Z,100014.25
2022-12-23T11:19:49.026Z,100014.84
2022-12-23T11:22:55.405Z,100013.22
2022-12-23T11:26:09.628Z,100014.16
2022-12-23T11:29:15.872Z,100013.94
2022-12-23T11:32:20.667Z,100002.75
2022-12-23T11:35:28.136Z,100007.63
2022-12-23T11:38:31.308Z,100000.97
2022-12-23T11:41:38.944Z,100014.72
2022-12-23T11:44:43.965Z,100021.34
2022-12-23T11:47:46.319Z,100011.81
2022-12-23T11:50:57.784Z,100013.50
2022-12-23T11:54:01.307Z,100018.41
2022-12-23T11:57:06.020Z,100018.22
2022-12-23T12:00:18.634Z,100013.00
2022-12-23T12:03:24.337Z,100018.81
2022-12-23T12:06:27.496Z,100029.00
2022-12-23T12:09:31.593Z,100030.97
2022-12-23T12:12:33.991Z,100033.72
2022-12-23T12:15:55.545Z,100022.69
2022-12-23T12:19:01.542Z,100022.91
2022-12-23T12:22:07.092Z,100025.34
2022-12-23T12:25:15.610Z,100023.37
2022-12-23T12:28:24.153Z,100025.72
2022-12-23T12:31:42.548Z,100022.06
2022-12-23T12:35:17.664Z,100024.44
2022-12-23T12:38:27.623Z,100025.19
2022-12-23T12:41:30.364Z,100023.22
2022-12-23T12:44:55.931Z,100020.69
2022-12-23T12:48:04.597Z,100022.47
2022-12-23T12:51:18.462Z,100015.62
2022-12-23T12:54:30.184Z,100026.00
2022-12-23T12:57:35.189Z,100027.63
2022-12-23T13:00:50.752Z,100014.66
2022-12-23T13:04:04.391Z,100025.16
2022-12-23T13:07:19.205Z,100016.56
2022-12-23T13:10:24.476Z,100026.87
2022-12-23T13:13:27.095Z,100025.91
2022-12-23T13:16:39.164Z,100034.56
2022-12-23T13:20:02.354Z,100029.28
2022-12-23T13:23:45.569Z,100033.00
2022-12-23T13:26:46.430Z,100035.84
2022-12-23T13:30:07.112Z,100033.16
2022-12-23T13:33:13.732Z,100039.16
2022-12-23T13:36:34.633Z,100022.03
2022-12-23T13:39:58.948Z,100022.97
2022-12-23T13:43:06.060Z,100028.19
2022-12-23T13:46:15.008Z,100019.84
2022-12-23T13:49:26.297Z,100030.00
2022-12-23T13:52:38.201Z,100040.06
2022-12-23T13:55:57.257Z,100045.84
2022-12-23T13:59:00.157Z,100034.78
2022-12-23T14:02:02.642Z,100028.75
2022-12-23T14:05:09.289Z,100031.25
2022-12-23T14:08:20.299Z,100029.56
2022-12-23T14:11:33.455Z,100031.19
2022-12-23T14:14:51.664Z,100029.75
2022-12-23T14:18:17.549Z,100034.78
2022-12-23T14:21:29.238Z,100027.25
2022-12-23T14:24:50.863Z,100043.69
2022-12-23T14:27:53.196Z,100042.00
2022-12-23T14:30:57.034Z,100049.75
2022-12-23T14:34:07.347Z,100041.16
2022-12-23T14:37:23.607Z,100039.34
2022-12-23T14:40:36.716Z,100048.75
2022-12-23T14:43:45.683Z,100058.19
2022-12-23T14:46:47.971Z,100046.25
2022-12-23T14:49:50.986Z,100052.19
2022-12-23T14:52:59.490Z,100054.69
2022-12-23T14:56:21.365Z,100049.63
2022-12-23T14:59:29.946Z,100045.25
2022-12-23T15:02:35.293Z,100049.50
2022-12-23T15:05:38.705Z,100055.59
2022-12-23T15:08:42.124Z,100055.59
2022-12-23T15:11:44.613Z,100054.78
2022-12-23T15:14:51.198Z,100058.25
2022-12-23T15:18:03.885Z,100063.44
2022-12-23T15:21:12.469Z,100078.00
2022-12-23T15:24:16.508Z,100074.59
2022-12-23T15:27:29.361Z,100091.03
2022-12-23T15:30:36.563Z,100085.94
2022-12-23T15:37:02.446Z,100072.16
2022-12-23T15:40:12.531Z,100059.22
2022-12-23T15:43:23.939Z,100076.47
2022-12-23T15:46:30.207Z,100073.00
2022-12-23T15:49:32.900Z,100059.22
2022-12-23T15:52:35.555Z,100062.69
2022-12-23T15:55:40.290Z,100073.81
2022-12-23T15:58:43.055Z,100072.88
2022-12-23T16:01:45.477Z,100071.16
2022-12-23T16:04:56.490Z,100060.63
2022-12-23T16:08:14.028Z,100062.59
2022-12-23T16:11:19.196Z,100067.59
2022-12-23T16:14:22.086Z,100059.84
2022-12-23T16:17:30.352Z,100058.06
2022-12-23T16:20:40.456Z,100056.31
2022-12-23T16:23:49.246Z,100070.97
2022-12-23T16:26:54.402Z,100074.53
2022-12-23T16:29:59.031Z,100062.47
2022-12-23T16:33:05.269Z,100051.56
2022-12-23T16:36:21.850Z,100056.81
2022-12-23T16:39:24.395Z,100066.31
2022-12-23T16:42:27.111Z,100062.97
2022-12-23T16:45:31.685Z,100055.19
2022-12-23T16:48:36.510Z,100059.53
2022-12-23T16:51:39.660Z,100056.94
2022-12-23T16:54:42.554Z,100052.62
2022-12-23T16:57:45.401Z,100064.72
2022-12-23T17:00:49.462Z,100061.28
2022-12-23T17:03:55.839Z,100050.91
2022-12-23T17:06:58.514Z,100047.63
2022-12-23T17:10:00.864Z,100051.88
2022-12-23T17:13:04.449Z,100050.13
2022-12-23T17:16:10.067Z,100062.22
2022-12-23T17:19:12.761Z,100059.59
2022-12-23T17:22:15.301Z,100051.81
2022-12-23T17:25:26.245Z,100046.66
2022-12-23T17:28:30.946Z,100052.59
2022-12-23T17:31:34.212Z,100042.34
2022-12-23T17:34:36.662Z,100043.19
2022-12-23T17:37:40.579Z,100029.47
2022-12-23T17:40:47.007Z,100028.62
2022-12-23T17:43:49.667Z,100023.50
2022-12-23T17:46:51.945Z,100022.59
2022-12-23T17:49:54.955Z,100038.94
2022-12-23T17:52:57.394Z,100049.16
2022-12-23T17:56:00.039Z,100042.28
2022-12-23T17:59:02.496Z,100042.22
2022-12-23T18:02:11.116Z,100045.69
2022-12-23T18:05:30.263Z,100039.66
2022-12-23T18:08:32.645Z,100038.84
2022-12-23T18:11:45.397Z,100043.94
2022-12-23T18:14:47.887Z,100042.28
2022-12-23T18:17:52.553Z,100020.84
2022-12-23T18:20:59.780Z,100031.94
2022-12-23T18:24:02.415Z,100036.28
2022-12-23T18:27:11.101Z,100032.03
2022-12-23T18:30:19.987Z,100033.78
2022-12-23T18:33:24.171Z,100036.31
2022-12-23T18:36:28.412Z,100042.38
2022-12-23T18:39:31.438Z,100036.94
2022-12-23T18:42:34.402Z,100037.81
2022-12-23T18:45:41.852Z,100035.47
2022-12-23T18:48:44.596Z,100047.56
2022-12-23T18:51:47.103Z,100046.72
2022-12-23T18:54:50.038Z,100062.19
2022-12-23T18:57:52.745Z,100050.16
2022-12-23T19:00:56.923Z,100045.00
2022-12-23T19:03:59.556Z,100053.53
2022-12-23T19:07:02.571Z,100057.03
2022-12-23T19:10:05.594Z,100050.87
2022-12-23T19:13:09.115Z,100053.53
2022-12-23T19:16:15.366Z,100054.34
2022-12-23T19:19:18.581Z,100062.06
2022-12-23T19:22:21.037Z,100062.88
2022-12-23T19:25:23.794Z,100068.97
2022-12-23T19:28:26.243Z,100065.53
2022-12-23T19:31:29.994Z,100073.28
2022-12-23T19:34:32.618Z,100070.63
2022-12-23T19:37:36.407Z,100070.66
2022-12-23T19:40:41.921Z,100073.31
2022-12-23T19:43:45.836Z,100079.34
2022-12-23T19:46:48.904Z,100074.22
2022-12-23T19:49:51.614Z,100074.28
2022-12-23T19:52:54.803Z,100078.53
2022-12-23T19:56:01.816Z,100083.59
2022-12-23T19:59:04.161Z,100078.25
2022-12-23T20:02:07.010Z,100089.47
2022-12-23T20:05:10.217Z,100091.28
2022-12-23T20:08:15.622Z,100087.78
2022-12-23T20:11:23.279Z,100094.59
2022-12-23T20:14:29.041Z,100082.59
2022-12-23T20:17:34.784Z,100086.91
2022-12-23T20:20:38.499Z,100089.44
2022-12-23T20:23:41.448Z,100093.81
2022-12-23T20:26:44.361Z,100085.19
2022-12-23T20:29:47.073Z,100080.03
2022-12-23T20:32:49.656Z,100076.59
2022-12-23T20:35:52.193Z,100069.69
2022-12-23T20:38:54.720Z,100064.59
2022-12-23T20:41:57.523Z,100057.78
2022-12-23T20:45:00.130Z,100060.25
2022-12-23T20:48:03.060Z,100055.94
2022-12-23T20:51:11.675Z,100057.53
2022-12-23T20:54:14.342Z,100041.38
2022-12-23T20:57:16.839Z,100040.44
2022-12-23T21:00:21.326Z,100050.81
2022-12-23T21:03:23.772Z,100046.50
2022-12-23T21:06:27.065Z,100049.31
2022-12-23T21:09:29.545Z,100048.47
2022-12-23T21:12:32.268Z,100062.16
2022-12-23T21:15:34.692Z,100046.72
2022-12-23T21:18:41.837Z,100049.31
2022-12-23T21:21:44.634Z,100035.47
2022-12-23T21:24:47.344Z,100033.81
2022-12-23T21:27:50.612Z,100037.31
2022-12-23T21:30:55.329Z,100029.53
2022-12-23T21:33:58.144Z,100033.81
2022-12-23T21:37:00.889Z,100033.94
2022-12-23T21:40:03.456Z,100028.75
2022-12-23T21:43:08.824Z,100013.25
2022-12-23T21:46:12.775Z,100005.72
2022-12-23T21:49:15.473Z,100003.09
2022-12-23T21:52:17.850Z,100006.47
2022-12-23T21:55:20.662Z,100013.41
2022-12-23T21:58:23.048Z,100004.00
2022-12-23T22:01:26.214Z,100003.94
2022-12-23T22:04:28.987Z,99996.13
2022-12-23T22:07:31.441Z,99996.06
2022-12-23T22:10:39.121Z,99979.91
2022-12-23T22:13:42.233Z,99963.63
2022-12-23T22:16:44.977Z,99947.31
2022-12-23T22:19:47.478Z,99937.91
2022-12-23T22:22:50.044Z,99936.28
2022-12-23T22:25:55.396Z,99928.47
2022-12-23T22:28:59.520Z,99929.38
2022-12-23T22:32:01.989Z,99927.63
2022-12-23T22:35:04.834Z,99932.78
2022-12-23T22:38:07.800Z,99934.53
2022-12-23T22:41:11.126Z,99935.38
2022-12-23T22:44:13.671Z,99929.41
2022-12-23T22:47:16.554Z,99927.63
2022-12-23T22:50:19.819Z,99918.16
2022-12-23T22:53:29.552Z,99912.19
2022-12-23T22:56:32.326Z,99908.66
2022-12-23T22:59:34.932Z,99906.09
2022-12-23T23:02:37.406Z,99899.22
2022-12-23T23:05:40.560Z,99903.56
2022-12-23T23:08:43.199Z,99905.12
2022-12-23T23:11:46.185Z,99903.34
2022-12-23T23:14:54.577Z,99907.63
2022-12-23T23:17:57.222Z,99913.56
2022-12-23T23:21:00.003Z,99904.13
2022-12-23T23:24:02.839Z,99919.50
2022-12-23T23:27:05.239Z,99923.84
2022-12-23T23:30:08.501Z,99925.47
2022-12-23T23:33:11.399Z,99930.66
2022-12-23T23:36:14.116Z,99939.94
2022-12-23T23:39:16.529Z,99943.50
2022-12-23T23:42:19.215Z,99930.66
2022-12-23T23:45:21.638Z,99939.37
2022-12-23T23:48:24.604Z,99917.91
2022-12-23T23:51:27.456Z,99906.66
2022-12-23T23:54:30.089Z,99914.31
2022-12-23T23:57:32.486Z,99909.34
